Time;durP1;ratioP1;P1;durP2;ratioP2;P2;SDS_P1;SDS_P2;PMS_P1;PMS_P2;Temp;Humidity;BMP_temperature;BMP_pressure;BME280_temperature;BME280_humidity;BME280_pressure;Samples;Min_cycle;Max_cycle;Signal;HPM_P1;HPM_P2
2021/06/06 00:11:28;;;;;;;10.24;4.92;;;;;;;13.88;61.67;99652.41;375000;142;881263;-60
2021/06/06 00:12:30;;;;;;;8.63;4.99;;;;;;;13.79;61.65;99652.65;366650;145;857216;-59
2021/06/06 00:13:32;;;;;;;7.28;4.60;;;;;;;13.79;61.61;99649.17;363579;145;857262;-60
2021/06/06 00:14:35;;;;;;;12.37;5.05;;;;;;;13.80;61.83;99648.28;360916;144;857330;-60
2021/06/06 00:15:37;;;;;;;9.05;5.75;;;;;;;13.85;61.98;99651.62;364297;145;857229;-60
2021/06/06 00:16:43;;;;;;;8.59;4.93;;;;;;;13.95;61.91;99654.84;366045;147;859189;-58
2021/06/06 00:17:44;;;;;;;8.52;4.88;;;;;;;14.02;61.82;99648.58;362975;145;857189;-60
2021/06/06 00:18:46;;;;;;;10.56;4.99;;;;;;;14.10;61.68;99653.56;364711;145;857321;-60
2021/06/06 00:19:48;;;;;;;8.26;5.01;;;;;;;14.17;61.49;99657.70;362959;148;866655;-60
2021/06/06 00:20:50;;;;;;;9.28;5.21;;;;;;;14.21;61.29;99656.72;361750;145;857369;-60
2021/06/06 00:21:53;;;;;;;7.71;5.16;;;;;;;14.23;61.09;99652.32;361914;147;857208;-60
2021/06/06 00:22:55;;;;;;;9.41;5.57;;;;;;;14.25;61.09;99649.69;359795;146;865281;-59
2021/06/06 00:23:57;;;;;;;10.75;4.99;;;;;;;14.28;60.89;99653.05;364878;145;858313;-60
2021/06/06 00:24:58;;;;;;;11.07;5.47;;;;;;;14.32;60.78;99656.44;365668;147;858026;-59
2021/06/06 00:26:01;;;;;;;11.41;5.60;;;;;;;14.32;60.78;99656.44;364054;144;858289;-59
2021/06/06 00:27:04;;;;;;;7.93;5.37;;;;;;;14.38;60.45;99647.61;363328;145;866118;-60
2021/06/06 00:28:06;;;;;;;10.19;5.58;;;;;;;14.38;60.37;99651.05;364897;145;862103;-60
2021/06/06 00:29:07;;;;;;;9.48;5.56;;;;;;;14.39;60.19;99649.31;363357;145;857443;-59
2021/06/06 00:30:10;;;;;;;9.22;5.96;;;;;;;14.39;60.13;99650.16;354836;151;865090;-59
2021/06/06 00:31:12;;;;;;;11.05;5.46;;;;;;;14.39;59.96;99647.55;355065;149;857548;-59
2021/06/06 00:32:14;;;;;;;9.86;5.58;;;;;;;14.38;59.82;99650.22;360761;147;857335;-61
2021/06/06 00:33:16;;;;;;;10.71;5.98;;;;;;;14.38;59.82;99650.22;359241;149;865027;-58
2021/06/06 00:34:18;;;;;;;10.49;5.55;;;;;;;14.34;59.71;99644.22;359885;147;865051;-59
2021/06/06 00:35:21;;;;;;;10.93;6.11;;;;;;;14.32;59.72;99648.63;359145;147;865426;-59
2021/06/06 00:36:23;;;;;;;9.92;5.64;;;;;;;14.26;59.93;99651.40;358250;150;865116;-59
2021/06/06 00:37:25;;;;;;;10.59;5.68;;;;;;;14.21;60.05;99640.26;359544;147;857183;-59
2021/06/06 00:38:26;;;;;;;8.91;5.49;;;;;;;14.15;60.29;99649.08;359474;148;857294;-60
2021/06/06 00:39:28;;;;;;;11.16;6.53;;;;;;;14.12;60.54;99644.83;358203;148;866782;-59
2021/06/06 00:40:31;;;;;;;10.18;5.51;;;;;;;14.14;60.61;99647.38;360359;147;865664;-59
2021/06/06 00:41:33;;;;;;;9.26;5.55;;;;;;;14.18;60.48;99643.78;359401;149;857312;-59
2021/06/06 00:42:35;;;;;;;8.93;5.24;;;;;;;14.18;60.44;99646.39;359260;147;858222;-59
2021/06/06 00:43:37;;;;;;;9.74;4.92;;;;;;;14.15;60.46;99642.14;359088;147;858940;-60
2021/06/06 00:44:39;;;;;;;10.44;4.87;;;;;;;14.15;60.46;99642.14;359450;149;857257;-59
2021/06/06 00:45:41;;;;;;;10.42;5.06;;;;;;;14.13;60.49;99648.27;359055;147;865019;-59
2021/06/06 00:46:43;;;;;;;12.75;6.09;;;;;;;14.06;60.51;99650.20;358408;150;865006;-60
2021/06/06 00:47:45;;;;;;;9.73;4.89;;;;;;;14.05;60.46;99648.50;358894;147;857484;-59
2021/06/06 00:48:47;;;;;;;7.68;5.06;;;;;;;14.05;60.23;99640.69;360690;147;857716;-59
2021/06/06 00:49:48;;;;;;;8.81;5.13;;;;;;;14.05;59.71;99648.50;357556;149;864897;-59
2021/06/06 00:50:53;;;;;;;8.29;4.89;;;;;;;13.98;59.29;99645.19;356448;147;859672;-59
2021/06/06 00:51:57;;;;;;;8.55;5.12;;;;;;;13.93;59.21;99646.22;354957;148;859306;-58
2021/06/06 00:53:02;;;;;;;7.99;4.86;;;;;;;13.81;59.34;99640.45;358912;147;858117;-58
2021/06/06 00:54:10;;;;;;;8.91;5.11;;;;;;;13.78;59.55;99644.86;358062;147;857945;-59
2021/06/06 00:55:12;;;;;;;11.66;4.90;;;;;;;13.71;59.46;99639.82;359086;150;859453;-59
2021/06/06 00:56:17;;;;;;;8.07;4.95;;;;;;;13.64;59.61;99635.67;357858;147;859567;-59
2021/06/06 00:57:22;;;;;;;7.36;4.98;;;;;;;13.56;59.79;99641.05;359082;149;859204;-59
2021/06/06 00:58:24;;;;;;;8.34;5.21;;;;;;;13.51;60.06;99640.31;358642;148;865242;-59
2021/06/06 00:59:26;;;;;;;8.29;5.25;;;;;;;13.46;60.22;99639.58;358991;147;860939;-59
2021/06/06 01:00:36;;;;;;;10.75;5.59;;;;;;;13.40;60.62;99640.56;357021;150;864865;-59
2021/06/06 01:01:38;;;;;;;9.89;4.90;;;;;;;13.38;60.81;99637.16;357250;147;861041;-59
2021/06/06 01:02:40;;;;;;;6.88;5.13;;;;;;;13.41;61.00;99641.41;360136;148;866001;-59
2021/06/06 01:03:44;;;;;;;6.43;4.85;;;;;;;;;;352957;149;865092;-59
2021/06/06 01:04:45;;;;;;;9.30;5.15;;;;;;;;;;358816;147;859148;-60
2021/06/06 01:05:52;;;;;;;7.69;5.01;;;;;;;;;;358100;150;857407;-60
2021/06/06 01:06:54;;;;;;;11.99;5.33;;;;;;;;;;358853;147;857485;-59
2021/06/06 01:07:55;;;;;;;9.53;5.05;;;;;;;;;;360135;147;857328;-60
2021/06/06 01:08:58;;;;;;;8.99;5.22;;;;;;;;;;362927;148;863190;-61
2021/06/06 01:10:00;;;;;;;6.55;4.86;;;;;;;;;;359976;147;859180;-60
2021/06/06 01:11:03;;;;;;;10.19;4.50;;;;;;;;;;359292;150;858843;-60
2021/06/06 01:12:13;;;;;;;8.09;5.13;;;;;;;;;;359547;148;866597;-60
2021/06/06 01:13:19;;;;;;;8.07;5.03;;;;;;;;;;357233;148;864936;-60
2021/06/06 01:14:23;;;;;;;9.77;5.42;;;;;;;;;;358485;150;857715;-59
2021/06/06 01:15:32;;;;;;;11.48;5.07;;;;;;;;;;358482;147;859231;-60
2021/06/06 01:16:40;;;;;;;11.21;5.99;;;;;;;;;;354939;150;858473;-60
2021/06/06 01:17:43;;;;;;;7.98;5.03;;;;;;;;;;359510;148;858923;-60
2021/06/06 01:18:46;;;;;;;8.57;5.19;;;;;;;;;;358234;148;857336;-60
2021/06/06 01:19:49;;;;;;;9.28;5.61;;;;;;;;;;359992;148;865738;-60
2021/06/06 01:20:53;;;;;;;7.63;4.96;;;;;;;;;;359408;147;860294;-60
2021/06/06 01:22:06;;;;;;;7.51;5.12;;;;;;;;;;357903;149;866646;-60
2021/06/06 01:23:17;;;;;;;10.11;5.42;;;;;;;;;;360543;147;857417;-60
2021/06/06 01:24:29;;;;;;;9.30;4.77;;;;;;;;;;355951;150;857209;-60
2021/06/06 01:25:32;;;;;;;10.53;5.39;;;;;;;;;;355022;147;859124;-60
2021/06/06 01:26:38;;;;;;;9.45;5.69;;;;;;;;;;355111;148;859460;-60
2021/06/06 01:27:40;;;;;;;8.09;5.59;;;;;;;;;;357077;150;857278;-61
2021/06/06 01:28:44;;;;;;;10.25;4.93;;;;;;;;;;359336;147;857300;-60
2021/06/06 01:30:04;;;;;;;7.96;5.14;;;;;;;;;;354821;150;857498;-59
2021/06/06 01:31:06;;;;;;;14.31;5.62;;;;;;;;;;360097;148;857735;-60
2021/06/06 01:32:12;;;;;;;11.37;5.67;;;;;;;;;;359521;147;865985;-59
2021/06/06 01:33:31;;;;;;;7.28;5.29;;;;;;;;;;359130;150;864657;-59
2021/06/06 01:34:32;;;;;;;8.89;5.12;;;;;;;;;;356205;148;859134;-59
2021/06/06 01:35:45;;;;;;;9.03;5.27;;;;;;;;;;357486;149;859179;-59
2021/06/06 01:36:48;;;;;;;8.47;4.53;;;;;;;;;;358790;147;857327;-60
2021/06/06 01:37:51;;;;;;;10.36;6.40;;;;;;;;;;350415;152;857214;-60
2021/06/06 01:39:00;;;;;;;8.37;5.02;;;;;;;;;;358935;147;857481;-61
2021/06/06 01:40:07;;;;;;;9.53;5.03;;;;;;;;;;356728;148;859278;-60
2021/06/06 01:41:09;;;;;;;9.29;5.48;;;;;;;;;;357744;147;858744;-61
2021/06/06 01:42:13;;;;;;;11.00;5.88;;;;;;;;;;351268;150;857977;-61
2021/06/06 01:43:19;;;;;;;10.76;5.94;;;;;;;;;;351990;150;857364;-61
2021/06/06 01:44:21;;;;;;;10.71;5.92;;;;;;;;;;355087;148;857694;-61
2021/06/06 01:45:27;;;;;;;13.23;6.07;;;;;;;;;;357462;147;859017;-59
2021/06/06 01:46:34;;;;;;;12.48;5.59;;;;;;;;;;358562;149;857759;-60
2021/06/06 01:47:36;;;;;;;12.77;5.61;;;;;;;;;;360009;147;859059;-60
2021/06/06 01:48:38;;;;;;;9.36;5.04;;;;;;;;;;357705;148;858635;-61
2021/06/06 01:49:48;;;;;;;7.29;5.46;;;;;;;;;;358236;148;861841;-60
2021/06/06 01:50:52;;;;;;;11.63;5.42;;;;;;;;;;359060;148;857340;-60
2021/06/06 01:51:55;;;;;;;11.71;5.51;;;;;;;;;;358480;149;864938;-61
2021/06/06 01:52:57;;;;;;;8.46;5.28;;;;;;;;;;358603;148;865097;-62
2021/06/06 01:53:59;;;;;;;9.33;5.49;;;;;;;;;;359426;148;857372;-59
2021/06/06 01:55:03;;;;;;;8.13;5.76;;;;;;;;;;358693;149;865107;-60
2021/06/06 01:56:05;;;;;;;9.49;5.95;;;;;;;;;;361548;147;857448;-60
2021/06/06 01:57:08;;;;;;;7.39;5.37;;;;;;;;;;357730;147;858363;-60
2021/06/06 01:58:12;;;;;;;10.70;5.89;;;;;;;;;;358164;148;857916;-60
2021/06/06 01:59:31;;;;;;;11.67;5.56;;;;;;;;;;358067;149;865638;-60
2021/06/06 02:00:37;;;;;;;10.35;5.87;;;;;;;;;;357837;148;857409;-60
2021/06/06 02:01:39;;;;;;;9.12;6.10;;;;;;;;;;355252;148;865083;-60
2021/06/06 02:02:40;;;;;;;13.61;5.30;;;;;;;;;;352714;152;859067;-60
2021/06/06 02:03:42;;;;;;;8.42;5.17;;;;;;;;;;355584;147;861771;-61
2021/06/06 02:04:44;;;;;;;8.25;5.23;;;;;;;;;;356314;150;857265;-59
2021/06/06 02:05:45;;;;;;;11.77;5.61;;;;;;;;;;359524;148;857423;-58
2021/06/06 02:06:49;;;;;;;9.50;5.33;;;;;;;;;;358905;147;859104;-59
2021/06/06 02:07:51;;;;;;;10.91;6.01;;;;;;;;;;359338;149;858959;-59
2021/06/06 02:08:52;;;;;;;12.11;5.53;;;;;;;;;;358333;148;857242;-59
2021/06/06 02:09:58;;;;;;;6.86;5.44;;;;;;;;;;357953;148;857657;-59
2021/06/06 02:11:02;;;;;;;9.87;5.73;;;;;;;;;;358809;150;865427;-60
2021/06/06 02:12:04;;;;;;;7.12;5.22;;;;;;;;;;357654;147;858539;-59
2021/06/06 02:13:11;;;;;;;8.10;5.59;;;;;;;;;;356579;150;859007;-59
2021/06/06 02:14:14;;;;;;;9.14;5.89;;;;;;;;;;355193;149;857515;-59
2021/06/06 02:15:17;;;;;;;12.46;5.61;;;;;;;;;;357549;149;858384;-59
2021/06/06 02:16:21;;;;;;;8.30;5.67;;;;;;;;;;356782;149;857238;-59
2021/06/06 02:17:30;;;;;;;9.14;5.34;;;;;;;;;;355513;149;858756;-60
2021/06/06 02:18:32;;;;;;;11.31;5.32;;;;;;;;;;356521;149;865641;-59
2021/06/06 02:19:33;;;;;;;10.54;5.63;;;;;;;;;;353139;150;857848;-60
2021/06/06 02:20:43;;;;;;;11.13;5.86;;;;;;;;;;355890;149;865456;-59
2021/06/06 02:21:44;;;;;;;7.61;5.24;;;;;;;;;;356086;150;859245;-59
2021/06/06 02:22:46;;;;;;;9.39;5.69;;;;;;;;;;354560;149;857940;-59
2021/06/06 02:23:48;;;;;;;10.72;6.01;;;;;;;;;;357546;149;863458;-60
2021/06/06 02:24:49;;;;;;;10.23;5.70;;;;;;;;;;357955;150;857253;-61
2021/06/06 02:25:53;;;;;;;8.43;5.09;;;;;;;;;;357868;149;865023;-60
2021/06/06 02:26:55;;;;;;;10.04;5.64;;;;;;;;;;358064;149;862051;-59
2021/06/06 02:28:16;;;;;;;12.62;6.23;;;;;;;;;;356853;150;867339;-59
2021/06/06 02:29:19;;;;;;;10.09;5.62;;;;;;;;;;357455;149;858028;-61
2021/06/06 02:30:25;;;;;;;10.30;5.66;;;;;;;;;;357504;150;857711;-61
2021/06/06 02:31:28;;;;;;;11.56;6.29;;;;;;;;;;357292;149;857809;-61
2021/06/06 02:32:35;;;;;;;9.36;5.95;;;;;;;;;;356174;150;858657;-61
2021/06/06 02:33:37;;;;;;;9.20;6.92;;;;;;;;;;355952;150;865160;-60
2021/06/06 02:34:40;;;;;;;9.99;5.85;;;;;;;;;;357287;149;858026;-61
2021/06/06 02:35:44;;;;;;;8.16;5.81;;;;;;;;;;356485;150;859970;-62
2021/06/06 02:36:48;;;;;;;12.88;6.52;;;;;;;;;;355296;150;858952;-61
2021/06/06 02:37:51;;;;;;;13.40;6.44;;;;;;;;;;356765;149;857348;-61
2021/06/06 02:38:55;;;;;;;11.88;6.76;;;;;;;;;;348643;149;857387;-58
2021/06/06 02:39:58;;;;;;;10.34;6.61;;;;;;;;;;356068;149;859356;-59
2021/06/06 02:41:02;;;;;;;14.30;6.59;;;;;;;;;;358832;149;865996;-58
2021/06/06 02:42:11;;;;;;;10.98;6.13;;;;;;;;;;356000;149;865052;-60
2021/06/06 02:43:15;;;;;;;9.76;6.47;;;;;;;;;;357315;149;858078;-57
2021/06/06 02:44:23;;;;;;;10.17;6.72;;;;;;;;;;356316;150;858655;-58
2021/06/06 02:45:26;;;;;;;9.51;6.19;;;;;;;;;;357442;149;857821;-57
2021/06/06 02:46:29;;;;;;;13.95;6.17;;;;;;;;;;356963;149;859596;-57
2021/06/06 02:47:33;;;;;;;10.50;6.37;;;;;;;;;;357238;150;857885;-58
2021/06/06 02:48:42;;;;;;;10.51;6.49;;;;;;;;;;355653;149;866831;-58
2021/06/06 02:49:44;;;;;;;10.30;6.67;;;;;;;;;;354170;150;859730;-59
2021/06/06 02:50:46;;;;;;;13.71;6.41;;;;;;;;;;353225;149;859953;-58
2021/06/06 02:51:48;;;;;;;11.18;6.85;;;;;;;;;;356780;149;857498;-58
2021/06/06 02:52:52;;;;;;;11.08;6.76;;;;;;;;;;357473;150;865058;-58
2021/06/06 02:53:58;;;;;;;11.34;6.90;;;;;;;;;;356859;149;866888;-58
2021/06/06 02:55:00;;;;;;;11.47;7.12;;;;;;;;;;348483;150;859183;-57
2021/06/06 02:56:03;;;;;;;9.60;6.67;;;;;;;;;;357192;150;857160;-56
2021/06/06 02:57:07;;;;;;;13.18;6.43;;;;;;;;;;355266;149;859504;-57
2021/06/06 02:58:20;;;;;;;8.91;6.09;;;;;;;;;;353857;151;859211;-56
2021/06/06 02:59:28;;;;;;;12.11;6.36;;;;;;;;;;356131;149;858970;-56
2021/06/06 03:00:37;;;;;;;10.23;5.73;;;;;;;;;;355871;150;858934;-56
2021/06/06 03:01:39;;;;;;;9.43;5.69;;;;;;;;;;352811;150;858378;-58
2021/06/06 03:02:42;;;;;;;11.03;5.96;;;;;;;;;;354869;149;857930;-57
2021/06/06 03:03:44;;;;;;;11.97;6.54;;;;;;;;;;356393;150;864940;-57
2021/06/06 03:04:47;;;;;;;14.14;6.77;;;;;;;;;;355444;150;857975;-56
2021/06/06 03:05:48;;;;;;;10.47;6.52;;;;;;;;;;355356;149;865099;-57
2021/06/06 03:06:52;;;;;;;11.61;7.05;;;;;;;;;;356936;150;865988;-58
2021/06/06 03:07:54;;;;;;;11.63;7.21;;;;;;;;;;356433;149;858517;-57
2021/06/06 03:08:56;;;;;;;10.69;7.61;;;;;;;;;;353173;149;858484;-58
2021/06/06 03:09:57;;;;;;;11.67;7.16;;;;;;;;;;355732;150;857396;-58
2021/06/06 03:10:59;;;;;;;12.09;7.27;;;;;;;;;;355960;149;857300;-58
2021/06/06 03:12:02;;;;;;;11.55;7.86;;;;;;;;;;353968;149;864970;-59
2021/06/06 03:13:06;;;;;;;13.24;8.14;;;;;;;;;;354853;150;857361;-59
2021/06/06 03:14:08;;;;;;;13.90;7.72;;;;;;;;;;352368;149;857361;-57
2021/06/06 03:15:11;;;;;;;12.85;8.45;;;;;;;;;;351279;149;860273;-58
2021/06/06 03:16:14;;;;;;;10.63;7.74;;;;;;;;;;353230;149;865225;-59
2021/06/06 03:17:20;;;;;;;12.46;7.41;;;;;;;;;;355457;148;857496;-58
2021/06/06 03:18:21;;;;;;;12.51;7.22;;;;;;;;;;351385;149;860133;-58
2021/06/06 03:19:23;;;;;;;11.75;7.04;;;;;;;;;;353470;149;859328;-59
2021/06/06 03:20:28;;;;;;;8.39;6.45;;;;;;;;;;352123;149;865140;-58
2021/06/06 03:21:31;;;;;;;10.76;7.14;;;;;;;;;;354922;149;865822;-59
2021/06/06 03:22:34;;;;;;;10.66;6.71;;;;;;;;;;356157;149;860665;-59
2021/06/06 03:23:36;;;;;;;9.34;7.05;;;;;;;;;;354541;149;858802;-57
2021/06/06 03:24:39;;;;;;;12.41;7.34;;;;;;;;;;353367;149;865906;-57
2021/06/06 03:25:42;;;;;;;11.91;7.49;;;;;;;;;;355322;149;865109;-60
2021/06/06 03:26:46;;;;;;;12.83;7.60;;;;;;;;;;352876;150;857782;-58
2021/06/06 03:27:48;;;;;;;9.58;7.37;;;;;;;;;;352419;149;857331;-60
2021/06/06 03:28:50;;;;;;;13.15;7.74;;;;;;;;;;355385;149;859840;-58
2021/06/06 03:30:08;;;;;;;12.99;7.39;;;;;;;;;;352480;151;857448;-59
2021/06/06 03:31:27;;;;;;;14.23;7.69;;;;;;;;;;354536;149;865086;-58
2021/06/06 03:32:30;;;;;;;16.04;7.99;;;;;;;;;;355054;150;857547;-60
2021/06/06 03:33:46;;;;;;;16.76;8.36;;;;;;;;;;347400;153;857784;-59
2021/06/06 03:34:49;;;;;;;13.80;6.98;;;;;;;;;;343173;155;858935;-59
2021/06/06 03:35:51;;;;;;;12.09;7.39;;;;;;;;;;346865;152;857749;-58
2021/06/06 03:36:53;;;;;;;13.19;7.40;;;;;;;;;;347449;152;857806;-59
2021/06/06 03:51:27;;;;;;;11.88;6.54;;;;;;;15.71;57.28;99656.58;371083;141;882084;-58
2021/06/06 03:52:33;;;;;;;11.59;7.06;;;;;;;15.58;57.39;99663.11;360785;148;857888;-58
2021/06/06 03:53:35;;;;;;;19.06;7.11;;;;;;;15.56;57.62;99663.14;361672;146;866694;-58
2021/06/06 03:54:37;;;;;;;11.17;6.84;;;;;;;15.60;57.86;99663.91;362277;147;865087;-56
2021/06/06 03:55:39;;;;;;;10.40;6.73;;;;;;;15.64;57.96;99665.52;362525;147;858946;-56
2021/06/06 03:56:44;;;;;;;11.26;6.48;;;;;;;15.66;58.09;99663.70;356473;147;865833;-57
2021/06/06 03:57:46;;;;;;;14.36;6.75;;;;;;;15.69;58.23;99657.52;357521;149;857265;-57
2021/06/06 03:58:48;;;;;;;19.40;6.73;;;;;;;;;;358959;149;859032;-58
2021/06/06 03:59:51;;;;;;;15.76;6.66;;;;;;;;;;363103;146;857449;-57
2021/06/06 04:00:53;;;;;;;15.55;7.01;;;;;;;;;;364220;147;859050;-57
2021/06/06 04:01:56;;;;;;;9.58;6.53;;;;;;;;;;364550;147;857333;-57
2021/06/06 04:02:59;;;;;;;10.80;7.28;;;;;;;;;;366031;147;858898;-57
2021/06/06 04:04:01;;;;;;;11.61;6.98;;;;;;;;;;364187;147;861250;-57
2021/06/06 04:05:03;;;;;;;8.43;6.29;;;;;;;;;;362613;147;859576;-59
2021/06/06 04:06:04;;;;;;;8.94;5.76;;;;;;;;;;363558;147;865564;-57
2021/06/06 04:07:06;;;;;;;14.55;5.71;;;;;;;;;;363456;147;858349;-56
2021/06/06 04:08:08;;;;;;;12.87;5.78;;;;;;;;;;362266;146;859279;-57
2021/06/06 04:09:10;;;;;;;8.57;6.34;;;;;;;;;;365039;147;866184;-58
2021/06/06 04:10:12;;;;;;;13.10;5.87;;;;;;;;;;362713;147;857351;-56
2021/06/06 04:11:14;;;;;;;12.36;6.18;;;;;;;;;;363123;146;858494;-57
2021/06/06 04:12:16;;;;;;;11.49;5.98;;;;;;;;;;364010;147;865074;-55
2021/06/06 04:13:18;;;;;;;12.54;6.09;;;;;;;;;;361085;147;857397;-57
2021/06/06 04:14:20;;;;;;;9.04;5.99;;;;;;;;;;363606;146;860408;-56
2021/06/06 04:15:21;;;;;;;13.96;6.55;;;;;;;;;;365956;147;859079;-56
2021/06/06 04:16:24;;;;;;;11.01;6.65;;;;;;;;;;361892;146;865730;-55
2021/06/06 04:17:26;;;;;;;9.34;6.22;;;;;;;;;;363368;147;858258;-57
2021/06/06 04:18:29;;;;;;;11.09;6.16;;;;;;;;;;361155;147;859094;-59
2021/06/06 04:19:30;;;;;;;11.37;5.91;;;;;;;;;;362450;146;857351;-57
2021/06/06 04:20:32;;;;;;;9.79;5.87;;;;;;;;;;363413;148;864957;-58
2021/06/06 04:21:34;;;;;;;10.32;6.39;;;;;;;;;;363934;147;857275;-58
2021/06/06 04:22:36;;;;;;;11.27;6.19;;;;;;;;;;361675;146;859061;-57
2021/06/06 04:23:38;;;;;;;10.62;5.73;;;;;;;;;;360152;142;857363;-59
2021/06/06 04:24:40;;;;;;;11.11;5.62;;;;;;;;;;358569;147;865925;-59
2021/06/06 04:25:42;;;;;;;12.21;5.84;;;;;;;;;;358709;147;866975;-57
2021/06/06 04:26:44;;;;;;;9.58;6.27;;;;;;;;;;358358;147;857759;-57
2021/06/06 04:27:45;;;;;;;13.56;6.25;;;;;;;;;;358815;147;857246;-60
2021/06/06 04:28:47;;;;;;;14.32;6.44;;;;;;;;;;356984;150;857266;-57
2021/06/06 04:29:48;;;;;;;9.64;6.06;;;;;;;;;;353109;149;857307;-57
2021/06/06 04:30:50;;;;;;;8.63;6.18;;;;;;;;;;351929;151;857216;-57
2021/06/06 04:31:52;;;;;;;10.39;5.89;;;;;;;;;;354550;150;859101;-57
2021/06/06 04:32:54;;;;;;;9.97;5.99;;;;;;;;;;352464;151;865501;-58
2021/06/06 04:33:55;;;;;;;10.21;6.14;;;;;;;;;;353612;149;858967;-58
2021/06/06 04:34:57;;;;;;;9.78;6.51;;;;;;;;;;352766;150;858178;-58
2021/06/06 04:35:58;;;;;;;9.06;6.02;;;;;;;;;;353651;151;857443;-59
2021/06/06 04:37:00;;;;;;;10.76;6.79;;;;;;;;;;352411;149;865055;-58
2021/06/06 04:38:02;;;;;;;12.32;7.21;;;;;;;;;;352827;151;865152;-58
2021/06/06 04:39:04;;;;;;;10.44;6.97;;;;;;;;;;354133;150;865118;-58
2021/06/06 04:40:08;;;;;;;12.92;6.82;;;;;;;;;;352548;151;858177;-57
2021/06/06 04:41:11;;;;;;;12.62;7.50;;;;;;;;;;351669;151;865977;-57
2021/06/06 04:42:17;;;;;;;9.91;6.89;;;;;;;;;;352123;151;859251;-57
2021/06/06 04:43:16;;;;;;;9.79;7.42;;;;;;;;;;350937;151;867045;-58
2021/06/06 04:44:18;;;;;;;14.56;7.44;;;;;;;;;;352754;151;857336;-58
2021/06/06 04:45:20;;;;;;;10.99;7.34;;;;;;;;;;352394;151;865894;-58
2021/06/06 04:46:23;;;;;;;13.16;7.22;;;;;;;;;;353095;150;857828;-57
2021/06/06 04:47:25;;;;;;;10.21;7.42;;;;;;;;;;352314;150;865156;-57
2021/06/06 04:48:29;;;;;;;11.80;7.39;;;;;;;;;;352629;151;865825;-57
2021/06/06 04:49:31;;;;;;;15.66;8.18;;;;;;;;;;353066;149;859830;-58
2021/06/06 04:50:33;;;;;;;11.69;6.96;;;;;;;;;;351396;151;857860;-59
2021/06/06 04:51:35;;;;;;;12.47;7.56;;;;;;;;;;342591;155;857271;-58
2021/06/06 04:52:37;;;;;;;12.11;7.60;;;;;;;;;;354627;150;858851;-59
2021/06/06 04:53:38;;;;;;;12.21;7.36;;;;;;;;;;351256;151;858997;-58
2021/06/06 04:54:40;;;;;;;13.96;7.36;;;;;;;;;;348275;149;859487;-58
2021/06/06 04:55:41;;;;;;;14.39;7.66;;;;;;;;;;352983;147;857392;-56
2021/06/06 04:56:44;;;;;;;13.65;7.85;;;;;;;;;;352200;151;857453;-59
2021/06/06 04:57:46;;;;;;;13.76;8.13;;;;;;;;;;353957;150;864944;-60
2021/06/06 04:58:47;;;;;;;14.61;7.96;;;;;;;;;;352080;149;858968;-57
2021/06/06 04:59:49;;;;;;;9.86;7.36;;;;;;;;;;353576;151;865162;-58
2021/06/06 05:00:51;;;;;;;17.32;8.41;;;;;;;;;;352831;150;858439;-58
2021/06/06 05:01:53;;;;;;;12.46;7.71;;;;;;;;;;352393;150;858788;-61
2021/06/06 05:02:54;;;;;;;16.40;8.61;;;;;;;;;;352435;152;859918;-59
2021/06/06 05:03:56;;;;;;;13.21;8.02;;;;;;;;;;353316;150;865685;-60
2021/06/06 05:04:57;;;;;;;18.04;8.44;;;;;;;;;;352453;150;858637;-59
2021/06/06 05:05:59;;;;;;;12.71;8.22;;;;;;;;;;354970;150;857384;-57
2021/06/06 05:07:01;;;;;;;16.67;9.03;;;;;;;;;;352588;151;857432;-62
2021/06/06 05:08:03;;;;;;;13.56;8.96;;;;;;;;;;347435;152;857375;-61
2021/06/06 05:09:04;;;;;;;13.24;9.52;;;;;;;;;;346030;153;857813;-59
2021/06/06 05:10:07;;;;;;;15.07;8.87;;;;;;;;;;345577;152;857458;-59
2021/06/06 05:11:08;;;;;;;16.97;9.11;;;;;;;;;;346327;152;858466;-60
2021/06/06 05:12:10;;;;;;;14.72;9.13;;;;;;;;;;343422;153;859141;-59
2021/06/06 05:13:12;;;;;;;16.45;9.43;;;;;;;;;;345441;152;856585;-59
2021/06/06 05:14:13;;;;;;;15.07;9.26;;;;;;;;;;344372;155;857953;-63
2021/06/06 05:15:16;;;;;;;17.36;9.66;;;;;;;;;;343334;154;864862;-62
2021/06/06 05:16:19;;;;;;;15.69;9.95;;;;;;;;;;346031;152;857240;-61
2021/06/06 05:17:21;;;;;;;16.24;9.85;;;;;;;;;;346440;153;857294;-60
2021/06/06 05:18:22;;;;;;;15.54;9.53;;;;;;;;;;346238;152;860257;-62
2021/06/06 05:19:24;;;;;;;16.32;9.61;;;;;;;;;;345903;152;857277;-59
2021/06/06 05:20:31;;;;;;;18.84;9.98;;;;;;;;;;345818;153;864992;-61
2021/06/06 05:21:32;;;;;;;17.93;10.51;;;;;;;;;;347116;152;858992;-59
2021/06/06 05:22:34;;;;;;;18.86;10.86;;;;;;;;;;347166;154;857489;-60
2021/06/06 05:23:36;;;;;;;17.31;10.82;;;;;;;;;;339874;156;858625;-60
2021/06/06 05:24:37;;;;;;;21.94;10.30;;;;;;;;;;348147;153;857711;-64
2021/06/06 05:25:39;;;;;;;18.41;11.19;;;;;;;;;;348121;154;860791;-61
2021/06/06 05:26:41;;;;;;;20.75;11.00;;;;;;;;;;347191;154;866113;-60
2021/06/06 05:27:43;;;;;;;17.97;11.16;;;;;;;;;;346569;153;860117;-59
2021/06/06 05:28:44;;;;;;;17.33;10.79;;;;;;;;;;346802;152;865380;-58
2021/06/06 05:29:46;;;;;;;20.61;11.81;;;;;;;;;;349237;151;857217;-59
2021/06/06 05:30:49;;;;;;;18.94;11.96;;;;;;;;;;347442;153;857275;-59
2021/06/06 05:31:51;;;;;;;20.34;12.27;;;;;;;;;;344759;152;858897;-60
2021/06/06 05:32:53;;;;;;;20.68;12.75;;;;;;;;;;345688;152;857415;-60
2021/06/06 05:33:55;;;;;;;19.91;12.20;;;;;;;;;;348778;153;864889;-62
2021/06/06 05:34:56;;;;;;;27.02;12.74;;;;;;;;;;344292;154;857156;-62
2021/06/06 05:35:58;;;;;;;21.17;12.52;;;;;;;;;;346419;153;857807;-58
2021/06/06 05:37:00;;;;;;;20.91;11.81;;;;;;;;;;348379;154;857254;-58
2021/06/06 05:38:02;;;;;;;19.13;10.78;;;;;;;;;;346482;152;857250;-59
2021/06/06 05:39:04;;;;;;;18.28;10.51;;;;;;;;;;348097;152;859017;-61
2021/06/06 05:40:07;;;;;;;17.99;10.28;;;;;;;;;;348565;154;857814;-63
2021/06/06 05:41:09;;;;;;;18.09;11.09;;;;;;;;;;347809;152;858890;-61
2021/06/06 05:42:10;;;;;;;23.05;11.05;;;;;;;;;;350315;152;857364;-63
2021/06/06 05:43:12;;;;;;;21.54;11.78;;;;;;;;;;349399;152;865670;-60
2021/06/06 05:44:13;;;;;;;19.69;11.69;;;;;;;;;;350473;152;858350;-65
2021/06/06 05:45:15;;;;;;;20.23;11.13;;;;;;;;;;344265;154;857183;-60
2021/06/06 05:46:18;;;;;;;24.90;11.22;;;;;;;;;;348247;154;857619;-61
2021/06/06 05:47:20;;;;;;;16.78;10.17;;;;;;;;;;347940;152;857303;-61
2021/06/06 05:48:22;;;;;;;19.17;10.22;;;;;;;;;;347246;153;857313;-61
2021/06/06 05:49:23;;;;;;;19.55;9.86;;;;;;;;;;348385;152;859150;-65
2021/06/06 05:50:28;;;;;;;24.07;10.68;;;;;;;;;;348291;152;857130;-65
2021/06/06 05:51:30;;;;;;;19.99;11.97;;;;;;;;;;352012;152;857793;-64
2021/06/06 05:52:32;;;;;;;20.82;11.51;;;;;;;;;;350129;152;857862;-63
2021/06/06 05:53:35;;;;;;;17.74;10.46;;;;;;;;;;346130;154;865848;-60
2021/06/06 05:54:37;;;;;;;17.91;11.06;;;;;;;;;;342409;157;857273;-61
2021/06/06 05:55:38;;;;;;;17.17;10.08;;;;;;;;;;347712;152;857251;-58
2021/06/06 05:56:45;;;;;;;23.67;10.44;;;;;;;;;;349947;152;857916;-58
2021/06/06 05:57:47;;;;;;;17.55;10.20;;;;;;;;;;348594;153;865613;-59
2021/06/06 05:58:49;;;;;;;19.37;10.26;;;;;;;;;;347847;152;864958;-59
2021/06/06 05:59:51;;;;;;;20.07;9.97;;;;;;;;;;349968;152;857691;-58
2021/06/06 06:00:53;;;;;;;20.79;9.00;;;;;;;;;;348288;152;866040;-58
2021/06/06 06:01:56;;;;;;;19.00;9.29;;;;;;;;;;347084;154;859083;-58
2021/06/06 06:02:58;;;;;;;15.99;8.61;;;;;;;;;;347313;154;857359;-59
2021/06/06 06:03:59;;;;;;;12.25;8.18;;;;;;;;;;348176;154;866630;-60
2021/06/06 06:05:01;;;;;;;18.74;8.12;;;;;;;;;;345477;154;859443;-59
2021/06/06 06:06:03;;;;;;;14.56;8.49;;;;;;;;;;346403;154;858949;-59
2021/06/06 06:07:04;;;;;;;13.83;8.07;;;;;;;;;;347710;153;865060;-59
2021/06/06 06:08:14;;;;;;;18.82;8.53;;;;;;;;;;347963;154;865601;-60
2021/06/06 06:09:15;;;;;;;16.06;7.86;;;;;;;;;;346614;153;865219;-60
2021/06/06 06:10:25;;;;;;;10.54;7.33;;;;;;;;;;348424;154;857305;-58
2021/06/06 06:11:28;;;;;;;12.18;7.15;;;;;;;;;;348333;154;857284;-60
2021/06/06 06:12:29;;;;;;;15.10;7.07;;;;;;;;;;348323;153;857257;-58
2021/06/06 06:13:31;;;;;;;14.23;6.72;;;;;;;;;;348295;154;857534;-60
2021/06/06 06:14:33;;;;;;;10.12;6.22;;;;;;;;;;348309;153;858179;-58
2021/06/06 06:15:35;;;;;;;11.44;6.58;;;;;;;;;;347677;154;858013;-61
2021/06/06 06:16:38;;;;;;;10.97;6.13;;;;;;;;;;347623;154;858905;-58
2021/06/06 06:17:39;;;;;;;11.79;5.84;;;;;;;;;;347579;152;866877;-57